sensor_id;sensor_type;location;lat;lon;timestamp;noise_LAeq;noise_LA_min;noise_LA_max;noise_LA01;noise_LA95
66335;Laerm;53138;51.496;6.410;2023-09-08T00:00:01;30.45;28.98;35.44;;
66335;Laerm;53138;51.496;6.410;2023-09-08T00:00:11;31.95;29.87;43.00;;
66335;Laerm;53138;51.496;6.410;2023-09-08T00:00:21;31.90;30.06;38.80;;
66335;Laerm;53138;51.496;6.410;2023-09-08T00:00:32;31.74;30.05;35.10;;
66335;Laerm;53138;51.496;6.410;2023-09-08T00:00:42;31.78;29.94;33.97;;
66335;Laerm;53138;51.496;6.410;2023-09-08T00:00:52;31.36;29.62;38.12;;
66335;Laerm;53138;51.496;6.410;2023-09-08T00:01:02;31.00;29.43;36.11;;
66335;Laerm;53138;51.496;6.410;2023-09-08T00:01:13;30.48;29.08;35.24;;
66335;Laerm;53138;51.496;6.410;2023-09-08T00:01:23;30.72;29.17;32.71;;
66335;Laerm;53138;51.496;6.410;2023-09-08T00:01:33;30.86;28.98;40.20;;
66335;Laerm;53138;51.496;6.410;2023-09-08T00:01:43;30.22;29.01;32.89;;
66335;Laerm;53138;51.496;6.410;2023-09-08T00:01:53;30.40;28.75;37.21;;
66335;Laerm;53138;51.496;6.410;2023-09-08T00:02:04;30.79;29.04;39.39;;
66335;Laerm;53138;51.496;6.410;2023-09-08T00:02:14;30.59;29.12;35.61;;
66335;Laerm;53138;51.496;6.410;2023-09-08T00:02:26;30.50;28.95;32.14;;
66335;Laerm;53138;51.496;6.410;2023-09-08T00:02:37;30.47;28.99;32.98;;
66335;Laerm;53138;51.496;6.410;2023-09-08T00:02:47;30.32;29.00;32.12;;
66335;Laerm;53138;51.496;6.410;2023-09-08T00:02:58;30.40;28.73;31.88;;
66335;Laerm;53138;51.496;6.410;2023-09-08T00:03:08;30.44;28.77;33.09;;
66335;Laerm;53138;51.496;6.410;2023-09-08T00:03:18;31.38;29.48;33.37;;
66335;Laerm;53138;51.496;6.410;2023-09-08T00:03:28;31.22;29.70;32.83;;
66335;Laerm;53138;51.496;6.410;2023-09-08T00:03:39;32.15;29.83;39.01;;
66335;Laerm;53138;51.496;6.410;2023-09-08T00:03:49;31.33;29.34;39.43;;
66335;Laerm;53138;51.496;6.410;2023-09-08T00:03:59;30.48;28.89;32.96;;
66335;Laerm;53138;51.496;6.410;2023-09-08T00:04:09;30.79;28.53;37.52;;
66335;Laerm;53138;51.496;6.410;2023-09-08T00:04:20;33.12;30.20;38.97;;
66335;Laerm;53138;51.496;6.410;2023-09-08T00:04:31;36.67;31.93;41.35;;
66335;Laerm;53138;51.496;6.410;2023-09-08T00:04:43;42.45;33.99;49.70;;
66335;Laerm;53138;51.496;6.410;2023-09-08T00:04:53;34.29;31.20;36.65;;
66335;Laerm;53138;51.496;6.410;2023-09-08T00:05:04;32.23;29.53;35.69;;
66335;Laerm;53138;51.496;6.410;2023-09-08T00:05:14;31.38;29.58;36.32;;
66335;Laerm;53138;51.496;6.410;2023-09-08T00:05:24;31.75;30.23;33.68;;
66335;Laerm;53138;51.496;6.410;2023-09-08T00:05:34;33.61;30.60;37.16;;
66335;Laerm;53138;51.496;6.410;2023-09-08T00:05:45;32.94;30.47;35.62;;
66335;Laerm;53138;51.496;6.410;2023-09-08T00:05:55;33.03;30.97;37.08;;
66335;Laerm;53138;51.496;6.410;2023-09-08T00:06:05;31.39;29.23;36.62;;
66335;Laerm;53138;51.496;6.410;2023-09-08T00:06:15;30.94;29.17;33.14;;
66335;Laerm;53138;51.496;6.410;2023-09-08T00:06:25;30.85;29.05;33.34;;
66335;Laerm;53138;51.496;6.410;2023-09-08T00:06:36;30.97;29.01;43.58;;
66335;Laerm;53138;51.496;6.410;2023-09-08T00:06:46;30.25;28.98;31.58;;
66335;Laerm;53138;51.496;6.410;2023-09-08T00:06:56;30.35;29.20;31.97;;
66335;Laerm;53138;51.496;6.410;2023-09-08T00:07:06;30.22;28.75;31.76;;
66335;Laerm;53138;51.496;6.410;2023-09-08T00:07:17;30.17;28.88;31.45;;
66335;Laerm;53138;51.496;6.410;2023-09-08T00:07:27;30.29;28.91;32.07;;
66335;Laerm;53138;51.496;6.410;2023-09-08T00:07:37;30.19;28.73;31.51;;
66335;Laerm;53138;51.496;6.410;2023-09-08T00:07:47;30.22;28.97;31.83;;
66335;Laerm;53138;51.496;6.410;2023-09-08T00:07:58;30.46;29.12;32.63;;
66335;Laerm;53138;51.496;6.410;2023-09-08T00:08:08;30.50;28.94;32.06;;
66335;Laerm;53138;51.496;6.410;2023-09-08T00:08:18;30.62;29.06;36.74;;
66335;Laerm;53138;51.496;6.410;2023-09-08T00:08:28;30.61;29.06;32.83;;
66335;Laerm;53138;51.496;6.410;2023-09-08T00:08:40;30.50;29.18;32.30;;
66335;Laerm;53138;51.496;6.410;2023-09-08T00:08:50;30.28;28.80;35.82;;
66335;Laerm;53138;51.496;6.410;2023-09-08T00:09:02;30.29;29.01;32.21;;
66335;Laerm;53138;51.496;6.410;2023-09-08T00:09:12;30.34;28.99;31.85;;
66335;Laerm;53138;51.496;6.410;2023-09-08T00:09:22;30.29;29.04;31.48;;
66335;Laerm;53138;51.496;6.410;2023-09-08T00:09:32;30.45;28.43;32.05;;
66335;Laerm;53138;51.496;6.410;2023-09-08T00:09:43;30.30;28.78;32.33;;
66335;Laerm;53138;51.496;6.410;2023-09-08T00:09:53;30.41;28.84;36.92;;
66335;Laerm;53138;51.496;6.410;2023-09-08T00:10:04;30.33;28.67;32.88;;
66335;Laerm;53138;51.496;6.410;2023-09-08T00:10:14;30.44;29.13;34.02;;
66335;Laerm;53138;51.496;6.410;2023-09-08T00:10:25;30.41;28.96;32.22;;
66335;Laerm;53138;51.496;6.410;2023-09-08T00:10:35;30.51;28.83;37.92;;
66335;Laerm;53138;51.496;6.410;2023-09-08T00:10:45;30.58;29.42;32.04;;
66335;Laerm;53138;51.496;6.410;2023-09-08T00:10:56;30.72;29.17;32.73;;
66335;Laerm;53138;51.496;6.410;2023-09-08T00:11:06;32.48;29.25;37.91;;
66335;Laerm;53138;51.496;6.410;2023-09-08T00:11:18;34.86;31.11;38.97;;
66335;Laerm;53138;51.496;6.410;2023-09-08T00:11:29;33.29;30.11;38.15;;
66335;Laerm;53138;51.496;6.410;2023-09-08T00:11:39;32.98;31.18;35.60;;
66335;Laerm;53138;51.496;6.410;2023-09-08T00:11:49;31.89;29.85;34.19;;
66335;Laerm;53138;51.496;6.410;2023-09-08T00:12:00;31.57;29.80;33.36;;
66335;Laerm;53138;51.496;6.410;2023-09-08T00:12:10;31.41;29.68;33.80;;
66335;Laerm;53138;51.496;6.410;2023-09-08T00:12:20;31.50;29.69;33.34;;
66335;Laerm;53138;51.496;6.410;2023-09-08T00:12:31;31.86;29.32;34.16;;
66335;Laerm;53138;51.496;6.410;2023-09-08T00:12:41;32.90;30.18;40.21;;
66335;Laerm;53138;51.496;6.410;2023-09-08T00:12:51;34.44;30.76;38.88;;
66335;Laerm;53138;51.496;6.410;2023-09-08T00:13:02;32.67;29.19;41.28;;
66335;Laerm;53138;51.496;6.410;2023-09-08T00:13:12;30.53;29.01;32.43;;
66335;Laerm;53138;51.496;6.410;2023-09-08T00:13:22;30.61;29.35;31.94;;
66335;Laerm;53138;51.496;6.410;2023-09-08T00:13:32;31.78;29.52;37.07;;
66335;Laerm;53138;51.496;6.410;2023-09-08T00:13:43;35.73;31.57;40.34;;
66335;Laerm;53138;51.496;6.410;2023-09-08T00:13:53;37.64;31.31;44.53;;
66335;Laerm;53138;51.496;6.410;2023-09-08T00:14:03;31.65;29.45;36.03;;
66335;Laerm;53138;51.496;6.410;2023-09-08T00:14:13;31.44;29.70;36.86;;
66335;Laerm;53138;51.496;6.410;2023-09-08T00:14:24;36.53;29.74;46.61;;
66335;Laerm;53138;51.496;6.410;2023-09-08T00:14:34;34.21;30.92;39.61;;
66335;Laerm;53138;51.496;6.410;2023-09-08T00:14:44;31.53;29.96;33.57;;
66335;Laerm;53138;51.496;6.410;2023-09-08T00:14:55;30.73;29.12;32.83;;
66335;Laerm;53138;51.496;6.410;2023-09-08T00:15:06;30.36;29.03;32.63;;
66335;Laerm;53138;51.496;6.410;2023-09-08T00:15:16;30.37;29.00;32.57;;
66335;Laerm;53138;51.496;6.410;2023-09-08T00:15:26;30.52;28.92;38.96;;
66335;Laerm;53138;51.496;6.410;2023-09-08T00:15:37;30.59;28.90;34.19;;
66335;Laerm;53138;51.496;6.410;2023-09-08T00:15:47;30.53;29.12;32.03;;
66335;Laerm;53138;51.496;6.410;2023-09-08T00:15:57;31.52;28.61;48.19;;
66335;Laerm;53138;51.496;6.410;2023-09-08T00:16:07;30.34;28.93;33.36;;
66335;Laerm;53138;51.496;6.410;2023-09-08T00:16:20;30.15;28.78;33.89;;
66335;Laerm;53138;51.496;6.410;2023-09-08T00:16:30;30.40;29.03;35.42;;
66335;Laerm;53138;51.496;6.410;2023-09-08T00:16:40;30.38;29.03;31.71;;
66335;Laerm;53138;51.496;6.410;2023-09-08T00:16:52;30.60;29.22;32.19;;
66335;Laerm;53138;51.496;6.410;2023-09-08T00:17:06;31.95;29.61;37.26;;
66335;Laerm;53138;51.496;6.410;2023-09-08T00:17:17;33.87;30.39;39.27;;
66335;Laerm;53138;51.496;6.410;2023-09-08T00:17:28;36.52;32.05;41.58;;
66335;Laerm;53138;51.496;6.410;2023-09-08T00:17:39;32.73;29.06;38.81;;
66335;Laerm;53138;51.496;6.410;2023-09-08T00:17:49;30.27;28.93;31.76;;
66335;Laerm;53138;51.496;6.410;2023-09-08T00:17:59;30.69;29.21;32.86;;
66335;Laerm;53138;51.496;6.410;2023-09-08T00:18:09;30.82;29.10;32.19;;
66335;Laerm;53138;51.496;6.410;2023-09-08T00:18:20;33.27;30.55;38.21;;
66335;Laerm;53138;51.496;6.410;2023-09-08T00:18:30;35.04;31.78;38.36;;
66335;Laerm;53138;51.496;6.410;2023-09-08T00:18:40;35.86;32.06;39.80;;
66335;Laerm;53138;51.496;6.410;2023-09-08T00:18:50;36.12;30.37;42.26;;
66335;Laerm;53138;51.496;6.410;2023-09-08T00:19:01;31.13;28.84;34.76;;
66335;Laerm;53138;51.496;6.410;2023-09-08T00:19:11;30.23;28.72;32.18;;
66335;Laerm;53138;51.496;6.410;2023-09-08T00:19:21;30.60;28.96;32.51;;
66335;Laerm;53138;51.496;6.410;2023-09-08T00:19:32;35.05;30.36;50.67;;
66335;Laerm;53138;51.496;6.410;2023-09-08T00:19:43;34.23;31.63;41.49;;
66335;Laerm;53138;51.496;6.410;2023-09-08T00:19:53;33.41;30.73;35.92;;
66335;Laerm;53138;51.496;6.410;2023-09-08T00:20:05;33.79;31.32;36.42;;
66335;Laerm;53138;51.496;6.410;2023-09-08T00:20:18;31.97;29.84;35.32;;
66335;Laerm;53138;51.496;6.410;2023-09-08T00:20:30;31.52;29.50;34.26;;
66335;Laerm;53138;51.496;6.410;2023-09-08T00:20:40;31.94;30.21;33.79;;
66335;Laerm;53138;51.496;6.410;2023-09-08T00:20:51;32.86;30.50;35.47;;
66335;Laerm;53138;51.496;6.410;2023-09-08T00:21:02;33.10;30.49;35.71;;
66335;Laerm;53138;51.496;6.410;2023-09-08T00:21:12;32.11;30.05;34.81;;
66335;Laerm;53138;51.496;6.410;2023-09-08T00:21:23;31.50;29.91;33.72;;
66335;Laerm;53138;51.496;6.410;2023-09-08T00:21:34;31.36;29.28;33.69;;
66335;Laerm;53138;51.496;6.410;2023-09-08T00:21:44;31.00;29.27;33.09;;
66335;Laerm;53138;51.496;6.410;2023-09-08T00:21:56;30.80;28.78;33.14;;
66335;Laerm;53138;51.496;6.410;2023-09-08T00:22:06;30.88;29.15;33.21;;
66335;Laerm;53138;51.496;6.410;2023-09-08T00:22:17;30.57;28.76;32.54;;
66335;Laerm;53138;51.496;6.410;2023-09-08T00:22:27;30.81;29.27;33.45;;
66335;Laerm;53138;51.496;6.410;2023-09-08T00:22:37;30.82;29.42;32.64;;
66335;Laerm;53138;51.496;6.410;2023-09-08T00:22:48;30.66;29.33;33.47;;
66335;Laerm;53138;51.496;6.410;2023-09-08T00:22:58;30.55;29.04;32.84;;
66335;Laerm;53138;51.496;6.410;2023-09-08T00:23:08;30.92;29.47;39.28;;
66335;Laerm;53138;51.496;6.410;2023-09-08T00:23:18;31.26;29.63;38.84;;
66335;Laerm;53138;51.496;6.410;2023-09-08T00:23:29;30.90;29.36;40.37;;
66335;Laerm;53138;51.496;6.410;2023-09-08T00:23:39;30.44;29.13;33.35;;
66335;Laerm;53138;51.496;6.410;2023-09-08T00:23:49;30.95;28.80;43.55;;
66335;Laerm;53138;51.496;6.410;2023-09-08T00:24:00;30.42;28.55;34.03;;
66335;Laerm;53138;51.496;6.410;2023-09-08T00:24:11;30.53;28.67;32.15;;
66335;Laerm;53138;51.496;6.410;2023-09-08T00:24:22;30.48;29.17;31.91;;
66335;Laerm;53138;51.496;6.410;2023-09-08T00:24:32;30.44;29.09;32.02;;
66335;Laerm;53138;51.496;6.410;2023-09-08T00:24:44;30.37;29.03;31.89;;
66335;Laerm;53138;51.496;6.410;2023-09-08T00:24:54;30.22;28.43;31.71;;
66335;Laerm;53138;51.496;6.410;2023-09-08T00:25:05;30.46;29.17;32.74;;
66335;Laerm;53138;51.496;6.410;2023-09-08T00:25:15;30.63;29.17;36.35;;
66335;Laerm;53138;51.496;6.410;2023-09-08T00:25:26;31.16;29.29;40.44;;
66335;Laerm;53138;51.496;6.410;2023-09-08T00:25:36;30.83;29.36;32.29;;
66335;Laerm;53138;51.496;6.410;2023-09-08T00:25:46;30.57;29.15;34.24;;
66335;Laerm;53138;51.496;6.410;2023-09-08T00:25:58;30.48;29.07;38.60;;
66335;Laerm;53138;51.496;6.410;2023-09-08T00:26:09;30.49;29.16;31.97;;
66335;Laerm;53138;51.496;6.410;2023-09-08T00:26:19;30.49;28.72;32.08;;
66335;Laerm;53138;51.496;6.410;2023-09-08T00:26:29;30.35;28.78;31.69;;
66335;Laerm;53138;51.496;6.410;2023-09-08T00:26:39;30.50;29.20;33.65;;
66335;Laerm;53138;51.496;6.410;2023-09-08T00:26:50;30.52;28.83;37.39;;
66335;Laerm;53138;51.496;6.410;2023-09-08T00:27:00;30.31;28.89;31.53;;
66335;Laerm;53138;51.496;6.410;2023-09-08T00:27:10;30.42;29.15;32.27;;
66335;Laerm;53138;51.496;6.410;2023-09-08T00:27:21;31.53;30.06;33.56;;
66335;Laerm;53138;51.496;6.410;2023-09-08T00:27:31;31.17;29.38;41.44;;
66335;Laerm;53138;51.496;6.410;2023-09-08T00:27:41;30.42;28.77;38.71;;
66335;Laerm;53138;51.496;6.410;2023-09-08T00:27:52;31.55;28.49;46.30;;
66335;Laerm;53138;51.496;6.410;2023-09-08T00:28:02;30.41;28.97;35.11;;
66335;Laerm;53138;51.496;6.410;2023-09-08T00:28:13;30.37;28.64;31.90;;
66335;Laerm;53138;51.496;6.410;2023-09-08T00:28:23;30.48;28.78;35.56;;
66335;Laerm;53138;51.496;6.410;2023-09-08T00:28:33;30.48;29.15;34.84;;
66335;Laerm;53138;51.496;6.410;2023-09-08T00:28:44;30.47;29.24;31.82;;
66335;Laerm;53138;51.496;6.410;2023-09-08T00:28:54;30.46;28.89;32.32;;
66335;Laerm;53138;51.496;6.410;2023-09-08T00:29:05;30.44;28.70;31.66;;
66335;Laerm;53138;51.496;6.410;2023-09-08T00:29:15;30.25;29.09;31.76;;
66335;Laerm;53138;51.496;6.410;2023-09-08T00:29:25;30.44;28.68;37.25;;
66335;Laerm;53138;51.496;6.410;2023-09-08T00:29:35;30.51;29.16;32.67;;
66335;Laerm;53138;51.496;6.410;2023-09-08T00:29:45;31.02;29.29;32.99;;
66335;Laerm;53138;51.496;6.410;2023-09-08T00:29:56;30.49;29.22;33.22;;
66335;Laerm;53138;51.496;6.410;2023-09-08T00:30:06;30.34;28.94;32.30;;
66335;Laerm;53138;51.496;6.410;2023-09-08T00:30:16;30.27;28.93;32.73;;
66335;Laerm;53138;51.496;6.410;2023-09-08T00:30:26;30.35;29.04;33.53;;
66335;Laerm;53138;51.496;6.410;2023-09-08T00:30:37;30.46;29.03;33.19;;
66335;Laerm;53138;51.496;6.410;2023-09-08T00:30:47;30.21;28.49;31.60;;
66335;Laerm;53138;51.496;6.410;2023-09-08T00:30:57;30.27;29.22;31.62;;
66335;Laerm;53138;51.496;6.410;2023-09-08T00:31:10;30.33;29.06;31.69;;
66335;Laerm;53138;51.496;6.410;2023-09-08T00:31:20;30.25;28.74;31.82;;
66335;Laerm;53138;51.496;6.410;2023-09-08T00:31:30;30.08;28.74;31.69;;
66335;Laerm;53138;51.496;6.410;2023-09-08T00:31:41;30.43;28.97;34.68;;
66335;Laerm;53138;51.496;6.410;2023-09-08T00:31:51;30.43;28.99;36.52;;
66335;Laerm;53138;51.496;6.410;2023-09-08T00:32:01;30.40;28.95;37.40;;
66335;Laerm;53138;51.496;6.410;2023-09-08T00:32:12;30.17;28.68;31.69;;
66335;Laerm;53138;51.496;6.410;2023-09-08T00:32:22;30.31;28.55;33.31;;
66335;Laerm;53138;51.496;6.410;2023-09-08T00:32:32;31.05;28.77;45.26;;
66335;Laerm;53138;51.496;6.410;2023-09-08T00:32:42;30.09;28.91;32.19;;
66335;Laerm;53138;51.496;6.410;2023-09-08T00:32:53;30.12;28.71;33.09;;
66335;Laerm;53138;51.496;6.410;2023-09-08T00:33:03;29.97;28.67;31.08;;
66335;Laerm;53138;51.496;6.410;2023-09-08T00:33:13;31.15;28.52;46.46;;
66335;Laerm;53138;51.496;6.410;2023-09-08T00:33:23;30.02;28.57;31.35;;
66335;Laerm;53138;51.496;6.410;2023-09-08T00:33:34;30.09;28.87;33.40;;
66335;Laerm;53138;51.496;6.410;2023-09-08T00:33:44;29.83;28.39;32.92;;
66335;Laerm;53138;51.496;6.410;2023-09-08T00:33:54;30.46;28.46;32.85;;
66335;Laerm;53138;51.496;6.410;2023-09-08T00:34:05;30.47;29.06;36.69;;
66335;Laerm;53138;51.496;6.410;2023-09-08T00:34:16;30.14;28.63;32.54;;
66335;Laerm;53138;51.496;6.410;2023-09-08T00:34:27;30.16;28.63;37.67;;
66335;Laerm;53138;51.496;6.410;2023-09-08T00:34:37;30.25;28.90;31.69;;
66335;Laerm;53138;51.496;6.410;2023-09-08T00:34:47;30.00;28.66;32.57;;
66335;Laerm;53138;51.496;6.410;2023-09-08T00:34:58;30.07;28.66;31.61;;
66335;Laerm;53138;51.496;6.410;2023-09-08T00:35:10;30.07;28.78;32.51;;
66335;Laerm;53138;51.496;6.410;2023-09-08T00:35:20;29.97;28.85;31.59;;
66335;Laerm;53138;51.496;6.410;2023-09-08T00:35:31;30.14;28.70;32.47;;
66335;Laerm;53138;51.496;6.410;2023-09-08T00:35:44;29.87;28.38;32.84;;
66335;Laerm;53138;51.496;6.410;2023-09-08T00:35:54;30.23;28.62;39.51;;
66335;Laerm;53138;51.496;6.410;2023-09-08T00:36:07;30.05;28.52;31.87;;
66335;Laerm;53138;51.496;6.410;2023-09-08T00:36:17;30.01;28.29;33.07;;
66335;Laerm;53138;51.496;6.410;2023-09-08T00:36:29;30.00;28.82;31.83;;
66335;Laerm;53138;51.496;6.410;2023-09-08T00:36:39;30.10;28.60;31.88;;
66335;Laerm;53138;51.496;6.410;2023-09-08T00:36:49;30.05;28.74;32.17;;
66335;Laerm;53138;51.496;6.410;2023-09-08T00:36:59;30.74;28.76;39.35;;
66335;Laerm;53138;51.496;6.410;2023-09-08T00:37:14;30.13;28.68;32.23;;
66335;Laerm;53138;51.496;6.410;2023-09-08T00:37:25;30.18;28.63;33.56;;
66335;Laerm;53138;51.496;6.410;2023-09-08T00:37:35;30.09;28.61;33.80;;
66335;Laerm;53138;51.496;6.410;2023-09-08T00:37:45;29.97;28.54;31.51;;
66335;Laerm;53138;51.496;6.410;2023-09-08T00:37:55;29.96;28.46;32.55;;
66335;Laerm;53138;51.496;6.410;2023-09-08T00:38:06;30.03;28.82;31.69;;
66335;Laerm;53138;51.496;6.410;2023-09-08T00:38:16;30.96;28.81;44.94;;
66335;Laerm;53138;51.496;6.410;2023-09-08T00:38:26;30.35;28.91;31.85;;
66335;Laerm;53138;51.496;6.410;2023-09-08T00:38:37;30.49;28.77;40.57;;
66335;Laerm;53138;51.496;6.410;2023-09-08T00:38:47;30.74;28.84;39.16;;
66335;Laerm;53138;51.496;6.410;2023-09-08T00:38:57;30.38;29.06;33.30;;
66335;Laerm;53138;51.496;6.410;2023-09-08T00:39:09;30.29;28.54;38.20;;
66335;Laerm;53138;51.496;6.410;2023-09-08T00:39:19;30.44;28.87;35.40;;
66335;Laerm;53138;51.496;6.410;2023-09-08T00:39:29;30.34;28.60;40.53;;
66335;Laerm;53138;51.496;6.410;2023-09-08T00:39:39;32.59;28.90;45.70;;
66335;Laerm;53138;51.496;6.410;2023-09-08T00:39:50;30.25;28.83;32.61;;
66335;Laerm;53138;51.496;6.410;2023-09-08T00:40:00;30.10;28.91;33.15;;
66335;Laerm;53138;51.496;6.410;2023-09-08T00:40:10;30.20;28.56;31.96;;
66335;Laerm;53138;51.496;6.410;2023-09-08T00:40:20;30.25;28.84;32.15;;
66335;Laerm;53138;51.496;6.410;2023-09-08T00:40:31;30.72;28.53;34.26;;
66335;Laerm;53138;51.496;6.410;2023-09-08T00:40:42;30.14;28.44;33.01;;
66335;Laerm;53138;51.496;6.410;2023-09-08T00:40:52;29.73;28.21;31.08;;
66335;Laerm;53138;51.496;6.410;2023-09-08T00:41:04;29.83;28.88;31.52;;
66335;Laerm;53138;51.496;6.410;2023-09-08T00:41:14;30.04;28.71;36.66;;
66335;Laerm;53138;51.496;6.410;2023-09-08T00:41:25;29.74;28.33;31.03;;
66335;Laerm;53138;51.496;6.410;2023-09-08T00:41:35;29.70;28.53;31.37;;
66335;Laerm;53138;51.496;6.410;2023-09-08T00:41:46;29.85;28.54;33.59;;
66335;Laerm;53138;51.496;6.410;2023-09-08T00:41:56;29.81;28.57;32.36;;
66335;Laerm;53138;51.496;6.410;2023-09-08T00:42:06;29.90;28.20;31.50;;
66335;Laerm;53138;51.496;6.410;2023-09-08T00:42:22;29.79;28.14;31.06;;
66335;Laerm;53138;51.496;6.410;2023-09-08T00:42:32;31.16;28.70;36.72;;
66335;Laerm;53138;51.496;6.410;2023-09-08T00:42:43;33.53;30.41;38.06;;
66335;Laerm;53138;51.496;6.410;2023-09-08T00:42:53;29.89;28.69;31.77;;
66335;Laerm;53138;51.496;6.410;2023-09-08T00:43:03;30.07;28.59;32.06;;
66335;Laerm;53138;51.496;6.410;2023-09-08T00:43:13;30.04;28.41;31.86;;
66335;Laerm;53138;51.496;6.410;2023-09-08T00:43:23;31.89;29.30;34.84;;
66335;Laerm;53138;51.496;6.410;2023-09-08T00:43:34;36.70;31.84;42.00;;
66335;Laerm;53138;51.496;6.410;2023-09-08T00:43:44;38.88;32.25;44.75;;
66335;Laerm;53138;51.496;6.410;2023-09-08T00:43:54;30.39;28.83;33.89;;
66335;Laerm;53138;51.496;6.410;2023-09-08T00:44:04;29.61;28.40;31.80;;
66335;Laerm;53138;51.496;6.410;2023-09-08T00:44:15;29.48;28.34;30.91;;
66335;Laerm;53138;51.496;6.410;2023-09-08T00:44:26;29.48;28.19;30.95;;
66335;Laerm;53138;51.496;6.410;2023-09-08T00:44:36;29.63;28.39;30.99;;
66335;Laerm;53138;51.496;6.410;2023-09-08T00:44:46;29.56;28.39;31.24;;
66335;Laerm;53138;51.496;6.410;2023-09-08T00:44:57;29.51;28.44;31.64;;
66335;Laerm;53138;51.496;6.410;2023-09-08T00:45:07;29.42;28.21;32.73;;
66335;Laerm;53138;51.496;6.410;2023-09-08T00:45:17;29.50;28.46;30.70;;
66335;Laerm;53138;51.496;6.410;2023-09-08T00:45:28;29.48;28.27;31.30;;
66335;Laerm;53138;51.496;6.410;2023-09-08T00:45:41;29.54;28.19;31.91;;
66335;Laerm;53138;51.496;6.410;2023-09-08T00:45:52;29.89;28.34;37.84;;
66335;Laerm;53138;51.496;6.410;2023-09-08T00:46:03;29.59;28.17;33.07;;
66335;Laerm;53138;51.496;6.410;2023-09-08T00:46:14;29.39;28.16;31.00;;
66335;Laerm;53138;51.496;6.410;2023-09-08T00:46:25;29.45;28.07;30.83;;
66335;Laerm;53138;51.496;6.410;2023-09-08T00:46:37;29.71;28.33;36.81;;
66335;Laerm;53138;51.496;6.410;2023-09-08T00:46:47;29.57;28.28;32.13;;
66335;Laerm;53138;51.496;6.410;2023-09-08T00:46:58;29.44;27.90;31.09;;
66335;Laerm;53138;51.496;6.410;2023-09-08T00:47:08;29.47;28.38;30.72;;
66335;Laerm;53138;51.496;6.410;2023-09-08T00:47:18;29.59;28.31;35.91;;
66335;Laerm;53138;51.496;6.410;2023-09-08T00:47:28;29.54;28.57;30.86;;
66335;Laerm;53138;51.496;6.410;2023-09-08T00:47:39;29.75;28.43;33.01;;
66335;Laerm;53138;51.496;6.410;2023-09-08T00:47:49;29.66;28.28;32.26;;
66335;Laerm;53138;51.496;6.410;2023-09-08T00:48:00;29.68;28.50;32.73;;
66335;Laerm;53138;51.496;6.410;2023-09-08T00:48:10;29.54;28.48;30.94;;
66335;Laerm;53138;51.496;6.410;2023-09-08T00:48:21;29.66;28.38;31.90;;
66335;Laerm;53138;51.496;6.410;2023-09-08T00:48:31;29.61;28.29;30.86;;
66335;Laerm;53138;51.496;6.410;2023-09-08T00:48:41;29.66;28.22;31.51;;
66335;Laerm;53138;51.496;6.410;2023-09-08T00:48:51;29.61;28.31;31.90;;
66335;Laerm;53138;51.496;6.410;2023-09-08T00:49:02;29.82;28.36;31.82;;
66335;Laerm;53138;51.496;6.410;2023-09-08T00:49:12;29.62;28.19;30.96;;
66335;Laerm;53138;51.496;6.410;2023-09-08T00:49:23;30.43;28.36;36.60;;
66335;Laerm;53138;51.496;6.410;2023-09-08T00:49:33;30.01;28.45;40.58;;
66335;Laerm;53138;51.496;6.410;2023-09-08T00:49:43;29.74;28.17;33.27;;
66335;Laerm;53138;51.496;6.410;2023-09-08T00:49:54;29.50;28.34;31.55;;
66335;Laerm;53138;51.496;6.410;2023-09-08T00:50:04;29.58;28.41;32.25;;
66335;Laerm;53138;51.496;6.410;2023-09-08T00:50:15;29.94;28.10;41.26;;
66335;Laerm;53138;51.496;6.410;2023-09-08T00:50:25;30.00;28.49;36.67;;
66335;Laerm;53138;51.496;6.410;2023-09-08T00:50:35;29.52;28.22;30.63;;
66335;Laerm;53138;51.496;6.410;2023-09-08T00:50:46;29.42;28.28;31.10;;
66335;Laerm;53138;51.496;6.410;2023-09-08T00:50:57;29.71;28.09;33.62;;
66335;Laerm;53138;51.496;6.410;2023-09-08T00:51:07;30.89;28.53;45.05;;
66335;Laerm;53138;51.496;6.410;2023-09-08T00:51:20;29.77;28.13;38.12;;
66335;Laerm;53138;51.496;6.410;2023-09-08T00:51:30;29.66;28.34;32.20;;
66335;Laerm;53138;51.496;6.410;2023-09-08T00:51:41;29.71;28.30;34.33;;
66335;Laerm;53138;51.496;6.410;2023-09-08T00:51:51;29.63;28.36;32.10;;
66335;Laerm;53138;51.496;6.410;2023-09-08T00:52:01;29.96;28.31;41.95;;
66335;Laerm;53138;51.496;6.410;2023-09-08T00:52:12;29.70;28.38;34.35;;
66335;Laerm;53138;51.496;6.410;2023-09-08T00:52:22;29.81;28.54;34.00;;
66335;Laerm;53138;51.496;6.410;2023-09-08T00:52:33;30.00;28.65;36.66;;
66335;Laerm;53138;51.496;6.410;2023-09-08T00:52:44;30.61;29.11;33.57;;
66335;Laerm;53138;51.496;6.410;2023-09-08T00:52:54;31.28;29.22;34.70;;
66335;Laerm;53138;51.496;6.410;2023-09-08T00:53:07;34.97;30.62;40.32;;
66335;Laerm;53138;51.496;6.410;2023-09-08T00:53:18;30.40;28.61;34.10;;
66335;Laerm;53138;51.496;6.410;2023-09-08T00:53:28;30.47;28.53;35.03;;
66335;Laerm;53138;51.496;6.410;2023-09-08T00:53:38;33.59;29.65;38.08;;
66335;Laerm;53138;51.496;6.410;2023-09-08T00:53:49;42.28;35.76;49.09;;
66335;Laerm;53138;51.496;6.410;2023-09-08T00:53:59;36.84;29.77;43.53;;
66335;Laerm;53138;51.496;6.410;2023-09-08T00:54:10;30.38;28.51;41.87;;
66335;Laerm;53138;51.496;6.410;2023-09-08T00:54:20;30.37;28.85;38.93;;
66335;Laerm;53138;51.496;6.410;2023-09-08T00:54:30;30.54;29.31;37.01;;
66335;Laerm;53138;51.496;6.410;2023-09-08T00:54:41;31.14;29.29;35.48;;
66335;Laerm;53138;51.496;6.410;2023-09-08T00:54:51;32.16;29.87;34.67;;
66335;Laerm;53138;51.496;6.410;2023-09-08T00:55:02;33.22;30.25;36.03;;
66335;Laerm;53138;51.496;6.410;2023-09-08T00:55:12;33.76;30.73;41.04;;
66335;Laerm;53138;51.496;6.410;2023-09-08T00:55:22;41.44;33.47;48.44;;
66335;Laerm;53138;51.496;6.410;2023-09-08T00:55:33;36.06;32.57;44.36;;
66335;Laerm;53138;51.496;6.410;2023-09-08T00:55:44;33.83;30.83;36.98;;
66335;Laerm;53138;51.496;6.410;2023-09-08T00:55:54;32.88;30.22;36.28;;
66335;Laerm;53138;51.496;6.410;2023-09-08T00:56:06;32.64;29.91;36.47;;
66335;Laerm;53138;51.496;6.410;2023-09-08T00:56:16;31.03;29.16;37.35;;
66335;Laerm;53138;51.496;6.410;2023-09-08T00:56:27;30.10;28.78;31.24;;
66335;Laerm;53138;51.496;6.410;2023-09-08T00:56:39;29.78;28.18;31.14;;
66335;Laerm;53138;51.496;6.410;2023-09-08T00:56:52;29.58;28.42;31.55;;
66335;Laerm;53138;51.496;6.410;2023-09-08T00:57:05;29.57;28.49;30.81;;
66335;Laerm;53138;51.496;6.410;2023-09-08T00:57:16;29.64;28.43;31.14;;
66335;Laerm;53138;51.496;6.410;2023-09-08T00:57:26;29.63;28.07;31.72;;
66335;Laerm;53138;51.496;6.410;2023-09-08T00:57:36;29.52;28.03;32.46;;
66335;Laerm;53138;51.496;6.410;2023-09-08T00:57:47;29.59;28.20;32.38;;
66335;Laerm;53138;51.496;6.410;2023-09-08T00:57:57;29.72;28.60;37.85;;
66335;Laerm;53138;51.496;6.410;2023-09-08T00:58:09;29.63;28.34;32.40;;
66335;Laerm;53138;51.496;6.410;2023-09-08T00:58:20;29.55;28.46;31.62;;
66335;Laerm;53138;51.496;6.410;2023-09-08T00:58:30;29.54;28.27;31.03;;
66335;Laerm;53138;51.496;6.410;2023-09-08T00:58:40;29.75;28.29;33.43;;
66335;Laerm;53138;51.496;6.410;2023-09-08T00:58:51;29.53;28.25;33.85;;
66335;Laerm;53138;51.496;6.410;2023-09-08T00:59:01;29.49;28.26;30.51;;